VLG79QK LEBL-LEIB
Flight info
| Callsign | VLG79QK |
|---|---|
| Flight time | 0h 39m |
| Altitude | 19000 |
| Route | LARPA N859 TOLSO |
| Aircraft | A320/M-SDE3FGHIRWY/LB1 |
Departure
| Time | 2026-05-06 15:13 |
|---|---|
| Airport | Josep Tarradellas Barcelona-El Prat Airport (LEBL) |
Arrival
| Time | 2026-05-06 15:52 |
|---|---|
| Airport | Ibiza Airport (LEIB) |
| Time | Latitude | Longitude | Altitude | Speed | Heading |
|---|---|---|---|---|---|
| 2026-05-06 14:48 | 41.29162 | 2.08305 | 19 ft | 0 kts | 251° |
| 2026-05-06 15:03 | 41.29168 | 2.08326 | 20 ft | 3 kts | 245° |
| 2026-05-06 15:03 | 41.29178 | 2.08350 | 23 ft | 3 kts | 238° |
| 2026-05-06 15:03 | 41.29189 | 2.08373 | 23 ft | 3 kts | 231° |
| 2026-05-06 15:04 | 41.29202 | 2.08393 | 23 ft | 3 kts | 224° |
| 2026-05-06 15:04 | 41.29217 | 2.08411 | 22 ft | 3 kts | 216° |
| 2026-05-06 15:04 | 41.29234 | 2.08425 | 22 ft | 3 kts | 205° |
| 2026-05-06 15:04 | 41.29253 | 2.08435 | 23 ft | 3 kts | 188° |
| 2026-05-06 15:05 | 41.29271 | 2.08435 | 20 ft | 2 kts | 158° |
| 2026-05-06 15:05 | 41.29273 | 2.08434 | 20 ft | 1 kts | 156° |
| 2026-05-06 15:08 | 41.29256 | 2.08444 | 23 ft | 5 kts | 156° |
| 2026-05-06 15:08 | 41.29200 | 2.08479 | 20 ft | 13 kts | 154° |
| 2026-05-06 15:08 | 41.29097 | 2.08544 | 16 ft | 20 kts | 157° |
| 2026-05-06 15:08 | 41.28961 | 2.08622 | 19 ft | 22 kts | 156° |
| 2026-05-06 15:09 | 41.28873 | 2.08761 | 17 ft | 22 kts | 77° |
| 2026-05-06 15:09 | 41.28938 | 2.08952 | 17 ft | 23 kts | 66° |
| 2026-05-06 15:09 | 41.29005 | 2.09149 | 17 ft | 24 kts | 65° |
| 2026-05-06 15:09 | 41.29078 | 2.09358 | 17 ft | 26 kts | 66° |
| 2026-05-06 15:10 | 41.29153 | 2.09580 | 18 ft | 27 kts | 65° |
| 2026-05-06 15:10 | 41.29233 | 2.09815 | 17 ft | 28 kts | 66° |
| 2026-05-06 15:10 | 41.29272 | 2.10027 | 16 ft | 16 kts | 115° |
| 2026-05-06 15:10 | 41.29234 | 2.10153 | 15 ft | 15 kts | 110° |
| 2026-05-06 15:11 | 41.29252 | 2.10230 | 16 ft | 13 kts | 72° |
| 2026-05-06 15:11 | 41.29210 | 2.10293 | 15 ft | 8 kts | 198° |
| 2026-05-06 15:11 | 41.29202 | 2.10272 | 17 ft | 0 kts | 244° |
| 2026-05-06 15:12 | 41.29200 | 2.10268 | 17 ft | 4 kts | 244° |
| 2026-05-06 15:12 | 41.29107 | 2.10006 | 18 ft | 68 kts | 245° |
| 2026-05-06 15:12 | 41.28814 | 2.09160 | 17 ft | 130 kts | 245° |
| 2026-05-06 15:12 | 41.28377 | 2.07930 | 351 ft | 148 kts | 242° |
| 2026-05-06 15:13 | 41.27939 | 2.06718 | 1026 ft | 145 kts | 234° |
| 2026-05-06 15:13 | 41.27090 | 2.06041 | 1511 ft | 156 kts | 188° |
| 2026-05-06 15:13 | 41.25919 | 2.05986 | 1877 ft | 180 kts | 182° |
| 2026-05-06 15:13 | 41.24583 | 2.06008 | 2216 ft | 203 kts | 181° |
| 2026-05-06 15:14 | 41.23126 | 2.06003 | 2658 ft | 218 kts | 183° |
| 2026-05-06 15:14 | 41.21598 | 2.05948 | 3298 ft | 222 kts | 185° |
| 2026-05-06 15:14 | 41.20033 | 2.05842 | 4017 ft | 226 kts | 186° |
| 2026-05-06 15:14 | 41.18459 | 2.05701 | 4840 ft | 228 kts | 187° |
| 2026-05-06 15:15 | 41.16818 | 2.05766 | 5328 ft | 251 kts | 166° |
| 2026-05-06 15:15 | 41.15115 | 2.06678 | 5743 ft | 274 kts | 160° |
| 2026-05-06 15:15 | 41.13304 | 2.07573 | 6490 ft | 281 kts | 163° |
| 2026-05-06 15:15 | 41.11441 | 2.08399 | 7340 ft | 284 kts | 164° |
| 2026-05-06 15:16 | 41.09549 | 2.09216 | 8192 ft | 287 kts | 164° |
| 2026-05-06 15:16 | 41.07639 | 2.10045 | 9062 ft | 290 kts | 164° |
| 2026-05-06 15:16 | 41.05715 | 2.10894 | 9912 ft | 293 kts | 163° |
| 2026-05-06 15:16 | 41.03730 | 2.11783 | 10376 ft | 311 kts | 163° |
| 2026-05-06 15:17 | 41.01603 | 2.12745 | 10611 ft | 334 kts | 163° |
| 2026-05-06 15:17 | 40.99353 | 2.13769 | 10817 ft | 356 kts | 163° |
| 2026-05-06 15:17 | 40.96977 | 2.14855 | 11348 ft | 365 kts | 163° |
| 2026-05-06 15:17 | 40.94561 | 2.15963 | 12031 ft | 370 kts | 163° |
| 2026-05-06 15:18 | 40.92112 | 2.17088 | 12737 ft | 374 kts | 163° |
| 2026-05-06 15:18 | 40.89647 | 2.18223 | 13431 ft | 378 kts | 163° |
| 2026-05-06 15:18 | 40.87147 | 2.19371 | 14091 ft | 381 kts | 163° |
| 2026-05-06 15:18 | 40.84637 | 2.20520 | 14724 ft | 383 kts | 164° |
| 2026-05-06 15:19 | 40.82094 | 2.21681 | 15362 ft | 386 kts | 165° |
| 2026-05-06 15:19 | 40.79548 | 2.22836 | 15996 ft | 389 kts | 165° |
| 2026-05-06 15:19 | 40.77014 | 2.23985 | 16621 ft | 391 kts | 166° |
| 2026-05-06 15:19 | 40.74434 | 2.25161 | 17257 ft | 394 kts | 166° |
| 2026-05-06 15:20 | 40.71835 | 2.26347 | 17876 ft | 397 kts | 166° |
| 2026-05-06 15:20 | 40.69203 | 2.27545 | 18467 ft | 400 kts | 167° |
| 2026-05-06 15:20 | 40.66568 | 2.28740 | 18824 ft | 402 kts | 167° |
| 2026-05-06 15:20 | 40.63920 | 2.29939 | 18921 ft | 405 kts | 167° |
| 2026-05-06 15:21 | 40.61202 | 2.31162 | 18949 ft | 421 kts | 167° |
| 2026-05-06 15:21 | 40.58388 | 2.32424 | 18947 ft | 432 kts | 166° |
| 2026-05-06 15:21 | 40.55519 | 2.33720 | 18946 ft | 436 kts | 166° |
| 2026-05-06 15:21 | 40.52651 | 2.35024 | 18945 ft | 436 kts | 166° |
| 2026-05-06 15:22 | 40.49781 | 2.36331 | 18944 ft | 437 kts | 166° |
| 2026-05-06 15:22 | 40.46949 | 2.37618 | 18947 ft | 437 kts | 166° |
| 2026-05-06 15:22 | 40.44076 | 2.38921 | 18939 ft | 436 kts | 166° |
| 2026-05-06 15:22 | 40.41202 | 2.40219 | 18948 ft | 436 kts | 166° |
| 2026-05-06 15:23 | 40.38334 | 2.41507 | 18948 ft | 436 kts | 166° |
| 2026-05-06 15:23 | 40.35460 | 2.42793 | 18950 ft | 436 kts | 166° |
| 2026-05-06 15:23 | 40.32583 | 2.44081 | 18950 ft | 436 kts | 166° |
| 2026-05-06 15:23 | 40.29713 | 2.45368 | 18950 ft | 436 kts | 166° |
| 2026-05-06 15:24 | 40.26839 | 2.46658 | 18951 ft | 436 kts | 166° |
| 2026-05-06 15:24 | 40.23967 | 2.47944 | 18950 ft | 436 kts | 167° |
| 2026-05-06 15:24 | 40.21044 | 2.48871 | 18930 ft | 430 kts | 176° |
| 2026-05-06 15:24 | 40.18083 | 2.49159 | 18933 ft | 424 kts | 185° |
| 2026-05-06 15:25 | 40.15154 | 2.48856 | 18937 ft | 420 kts | 191° |
| 2026-05-06 15:25 | 40.12250 | 2.48399 | 18938 ft | 420 kts | 191° |
| 2026-05-06 15:25 | 40.09381 | 2.47948 | 18939 ft | 421 kts | 191° |
| 2026-05-06 15:25 | 40.06478 | 2.47492 | 18939 ft | 421 kts | 191° |
| 2026-05-06 15:26 | 40.03567 | 2.47039 | 18944 ft | 421 kts | 191° |
| 2026-05-06 15:26 | 40.00660 | 2.46592 | 18942 ft | 421 kts | 191° |
| 2026-05-06 15:26 | 39.97748 | 2.46144 | 18927 ft | 421 kts | 191° |
| 2026-05-06 15:26 | 39.94834 | 2.45696 | 18929 ft | 421 kts | 191° |
| 2026-05-06 15:27 | 39.91921 | 2.45249 | 18930 ft | 421 kts | 191° |
| 2026-05-06 15:27 | 39.89007 | 2.44801 | 18928 ft | 422 kts | 191° |
| 2026-05-06 15:27 | 39.86088 | 2.44353 | 18932 ft | 422 kts | 191° |
| 2026-05-06 15:27 | 39.83171 | 2.43908 | 18934 ft | 422 kts | 191° |
| 2026-05-06 15:28 | 39.80259 | 2.43462 | 18937 ft | 422 kts | 191° |
| 2026-05-06 15:28 | 39.77343 | 2.43012 | 18915 ft | 422 kts | 190° |
| 2026-05-06 15:28 | 39.74468 | 2.42567 | 18926 ft | 422 kts | 190° |
| 2026-05-06 15:28 | 39.71546 | 2.42117 | 18918 ft | 423 kts | 190° |
| 2026-05-06 15:29 | 39.68621 | 2.41671 | 18932 ft | 423 kts | 190° |
| 2026-05-06 15:29 | 39.65691 | 2.41225 | 18925 ft | 423 kts | 190° |
| 2026-05-06 15:29 | 39.62769 | 2.40779 | 18926 ft | 424 kts | 190° |
| 2026-05-06 15:29 | 39.59871 | 2.40147 | 18928 ft | 420 kts | 198° |
| 2026-05-06 15:30 | 39.57134 | 2.38849 | 18927 ft | 416 kts | 208° |
| 2026-05-06 15:30 | 39.54681 | 2.36923 | 18917 ft | 412 kts | 219° |
| 2026-05-06 15:30 | 39.52564 | 2.34433 | 18923 ft | 410 kts | 229° |
| 2026-05-06 15:30 | 39.50854 | 2.31491 | 18924 ft | 408 kts | 238° |
| 2026-05-06 15:31 | 39.49307 | 2.28405 | 18924 ft | 409 kts | 238° |
| 2026-05-06 15:31 | 39.47749 | 2.25331 | 18926 ft | 409 kts | 237° |
| 2026-05-06 15:31 | 39.46185 | 2.22263 | 18931 ft | 409 kts | 237° |
| 2026-05-06 15:32 | 39.43041 | 2.16110 | 18928 ft | 409 kts | 237° |
| 2026-05-06 15:32 | 39.41471 | 2.13036 | 18924 ft | 409 kts | 237° |
| 2026-05-06 15:32 | 39.39905 | 2.09966 | 18929 ft | 409 kts | 237° |
| 2026-05-06 15:32 | 39.38341 | 2.06901 | 18931 ft | 409 kts | 237° |
| 2026-05-06 15:33 | 39.36773 | 2.03829 | 18926 ft | 409 kts | 237° |
| 2026-05-06 15:33 | 39.35230 | 2.00804 | 18891 ft | 407 kts | 237° |
| 2026-05-06 15:33 | 39.33691 | 1.97794 | 18651 ft | 398 kts | 237° |
| 2026-05-06 15:33 | 39.32171 | 1.94832 | 18397 ft | 396 kts | 237° |
| 2026-05-06 15:34 | 39.30649 | 1.91864 | 18162 ft | 395 kts | 237° |
| 2026-05-06 15:34 | 39.29134 | 1.88914 | 17904 ft | 393 kts | 237° |
| 2026-05-06 15:34 | 39.27624 | 1.85977 | 17632 ft | 392 kts | 237° |
| 2026-05-06 15:34 | 39.26120 | 1.83052 | 17368 ft | 391 kts | 237° |
| 2026-05-06 15:35 | 39.24614 | 1.80133 | 17112 ft | 390 kts | 237° |
| 2026-05-06 15:35 | 39.23112 | 1.77229 | 16850 ft | 389 kts | 237° |
| 2026-05-06 15:35 | 39.21609 | 1.74328 | 16591 ft | 388 kts | 237° |
| 2026-05-06 15:35 | 39.20100 | 1.71442 | 16334 ft | 387 kts | 236° |
| 2026-05-06 15:36 | 39.18531 | 1.68629 | 16083 ft | 386 kts | 234° |
| 2026-05-06 15:36 | 39.16909 | 1.65874 | 15826 ft | 386 kts | 233° |
| 2026-05-06 15:36 | 39.15263 | 1.63154 | 15573 ft | 385 kts | 233° |
| 2026-05-06 15:36 | 39.13611 | 1.60436 | 15324 ft | 384 kts | 233° |
| 2026-05-06 15:37 | 39.11974 | 1.57729 | 15077 ft | 383 kts | 233° |
| 2026-05-06 15:37 | 39.10346 | 1.55015 | 14821 ft | 382 kts | 233° |
| 2026-05-06 15:37 | 39.08733 | 1.52312 | 14583 ft | 381 kts | 233° |
| 2026-05-06 15:37 | 39.07118 | 1.49599 | 14340 ft | 381 kts | 233° |
| 2026-05-06 15:38 | 39.05503 | 1.46881 | 14100 ft | 381 kts | 233° |
| 2026-05-06 15:38 | 39.03918 | 1.44209 | 13865 ft | 380 kts | 234° |
| 2026-05-06 15:38 | 39.02332 | 1.41495 | 13615 ft | 379 kts | 234° |
| 2026-05-06 15:38 | 39.00761 | 1.38776 | 13342 ft | 378 kts | 234° |
| 2026-05-06 15:39 | 38.99224 | 1.36110 | 13157 ft | 363 kts | 234° |
| 2026-05-06 15:39 | 38.97754 | 1.33556 | 13004 ft | 348 kts | 234° |
| 2026-05-06 15:39 | 38.96342 | 1.31107 | 12900 ft | 333 kts | 234° |
| 2026-05-06 15:39 | 38.94993 | 1.28778 | 12794 ft | 319 kts | 234° |
| 2026-05-06 15:40 | 38.93687 | 1.26533 | 12665 ft | 307 kts | 234° |
| 2026-05-06 15:40 | 38.92428 | 1.24376 | 12531 ft | 297 kts | 234° |
| 2026-05-06 15:40 | 38.91208 | 1.22287 | 12405 ft | 287 kts | 234° |
| 2026-05-06 15:40 | 38.90031 | 1.20270 | 12278 ft | 278 kts | 234° |
| 2026-05-06 15:41 | 38.88895 | 1.18313 | 12147 ft | 268 kts | 237° |
| 2026-05-06 15:41 | 38.88001 | 1.16268 | 12018 ft | 258 kts | 243° |
| 2026-05-06 15:41 | 38.87171 | 1.14255 | 11814 ft | 253 kts | 243° |
| 2026-05-06 15:41 | 38.86340 | 1.12263 | 11465 ft | 254 kts | 243° |
| 2026-05-06 15:42 | 38.85509 | 1.10278 | 11046 ft | 251 kts | 243° |
| 2026-05-06 15:42 | 38.84684 | 1.08307 | 10551 ft | 249 kts | 243° |
| 2026-05-06 15:42 | 38.83877 | 1.06383 | 10177 ft | 247 kts | 243° |
| 2026-05-06 15:42 | 38.83061 | 1.04440 | 9831 ft | 246 kts | 244° |
| 2026-05-06 15:43 | 38.82250 | 1.02506 | 9464 ft | 245 kts | 243° |
| 2026-05-06 15:43 | 38.81442 | 1.00580 | 9117 ft | 244 kts | 243° |
| 2026-05-06 15:43 | 38.80640 | 0.98665 | 8781 ft | 244 kts | 244° |
| 2026-05-06 15:43 | 38.79840 | 0.96756 | 8446 ft | 243 kts | 243° |
| 2026-05-06 15:44 | 38.78883 | 0.94974 | 8106 ft | 243 kts | 228° |
| 2026-05-06 15:44 | 38.77645 | 0.93472 | 7750 ft | 243 kts | 224° |
| 2026-05-06 15:44 | 38.76403 | 0.92015 | 7391 ft | 242 kts | 221° |
| 2026-05-06 15:44 | 38.74930 | 0.91000 | 7039 ft | 242 kts | 194° |
| 2026-05-06 15:45 | 38.73289 | 0.90927 | 6796 ft | 239 kts | 168° |
| 2026-05-06 15:45 | 38.71737 | 0.91736 | 6662 ft | 244 kts | 148° |
| 2026-05-06 15:45 | 38.70537 | 0.93244 | 6493 ft | 243 kts | 118° |
| 2026-05-06 15:45 | 38.70126 | 0.95305 | 6271 ft | 243 kts | 85° |
| 2026-05-06 15:46 | 38.70656 | 0.97312 | 5939 ft | 239 kts | 59° |
| 2026-05-06 15:46 | 38.71487 | 0.99147 | 5632 ft | 237 kts | 60° |
| 2026-05-06 15:46 | 38.72293 | 1.00986 | 5334 ft | 235 kts | 61° |
| 2026-05-06 15:46 | 38.73060 | 1.02825 | 5067 ft | 234 kts | 62° |
| 2026-05-06 15:47 | 38.73807 | 1.04659 | 4815 ft | 231 kts | 62° |
| 2026-05-06 15:47 | 38.74545 | 1.06478 | 4591 ft | 228 kts | 62° |
| 2026-05-06 15:47 | 38.75277 | 1.08276 | 4338 ft | 227 kts | 62° |
| 2026-05-06 15:47 | 38.76010 | 1.10076 | 4085 ft | 226 kts | 62° |
| 2026-05-06 15:48 | 38.76734 | 1.11850 | 3828 ft | 223 kts | 63° |
| 2026-05-06 15:48 | 38.77452 | 1.13607 | 3571 ft | 222 kts | 63° |
| 2026-05-06 15:48 | 38.78171 | 1.15363 | 3325 ft | 223 kts | 62° |
| 2026-05-06 15:48 | 38.78889 | 1.17104 | 3141 ft | 219 kts | 62° |
| 2026-05-06 15:49 | 38.79611 | 1.18843 | 2924 ft | 221 kts | 62° |
| 2026-05-06 15:49 | 38.80335 | 1.20580 | 2664 ft | 222 kts | 61° |
| 2026-05-06 15:49 | 38.81058 | 1.22316 | 2362 ft | 219 kts | 61° |
| 2026-05-06 15:49 | 38.81760 | 1.24004 | 2067 ft | 209 kts | 62° |
| 2026-05-06 15:50 | 38.82425 | 1.25601 | 1822 ft | 196 kts | 62° |
| 2026-05-06 15:50 | 38.83023 | 1.27041 | 1547 ft | 175 kts | 62° |
| 2026-05-06 15:50 | 38.83564 | 1.28342 | 1334 ft | 158 kts | 62° |
| 2026-05-06 15:50 | 38.84066 | 1.29550 | 1131 ft | 148 kts | 61° |
| 2026-05-06 15:51 | 38.84532 | 1.30673 | 942 ft | 137 kts | 62° |
| 2026-05-06 15:51 | 38.84976 | 1.31742 | 767 ft | 135 kts | 64° |
| 2026-05-06 15:51 | 38.85417 | 1.32804 | 590 ft | 135 kts | 63° |
| 2026-05-06 15:51 | 38.85862 | 1.33861 | 403 ft | 132 kts | 61° |
| 2026-05-06 15:52 | 38.86303 | 1.34890 | 229 ft | 132 kts | 65° |
| 2026-05-06 15:52 | 38.86721 | 1.35927 | 51 ft | 130 kts | 65° |
| 2026-05-06 15:52 | 38.87096 | 1.36864 | 10 ft | 97 kts | 62° |
| 2026-05-06 15:52 | 38.87277 | 1.37298 | 11 ft | 31 kts | 58° |
| 2026-05-06 15:53 | 38.87395 | 1.37448 | 10 ft | 19 kts | 35° |
| 2026-05-06 15:53 | 38.87508 | 1.37545 | 10 ft | 21 kts | 32° |
| 2026-05-06 15:53 | 38.87614 | 1.37537 | 9 ft | 14 kts | 332° |
| 2026-05-06 15:53 | 38.87683 | 1.37483 | 9 ft | 10 kts | 314° |
| 2026-05-06 15:54 | 38.87679 | 1.37382 | 10 ft | 16 kts | 240° |
| 2026-05-06 15:54 | 38.87620 | 1.37239 | 8 ft | 21 kts | 242° |
| 2026-05-06 15:54 | 38.87538 | 1.37046 | 10 ft | 28 kts | 241° |
| 2026-05-06 15:54 | 38.87516 | 1.36948 | 8 ft | 4 kts | 335° |
| 2026-05-06 15:55 | 38.87550 | 1.36927 | 8 ft | 2 kts | 332° |
| 2026-05-06 15:55 | 38.87557 | 1.36922 | 8 ft | 1 kts | 331° |
| 2026-05-06 15:55 | 38.87558 | 1.36921 | 10 ft | 0 kts | 331° |
| 2026-05-06 15:55 | 38.87559 | 1.36921 | 10 ft | 0 kts | 331° |